Time;durP1;ratioP1;P1;durP2;ratioP2;P2;SDS_P1;SDS_P2;PMS_P1;PMS_P2;Temp;Humidity;BMP_temperature;BMP_pressure;BME280_temperature;BME280_humidity;BME280_pressure;Samples;Min_cycle;Max_cycle;Signal;HPM_P1;HPM_P2
2021/12/25 00:01:14;;;;;;;9.43;6.20;;;;;;;18.02;24.67;97225.28;5075880;28;20580;-76
2021/12/25 00:03:40;;;;;;;10.13;6.50;;;;;;;18.06;24.93;97229.16;5093169;28;20148;-73
2021/12/25 00:06:07;;;;;;;11.55;6.22;;;;;;;18.06;24.73;97223.78;5093684;28;20047;-73
2021/12/25 00:08:33;;;;;;;9.65;6.57;;;;;;;18.06;24.66;97213.09;5093766;28;20036;-76
2021/12/25 00:11:01;;;;;;;9.27;6.18;;;;;;;18.06;24.70;97207.75;5095457;28;20488;-73
2021/12/25 00:13:26;;;;;;;9.65;5.75;;;;;;;18.07;24.73;97202.19;5095369;28;20055;-73
2021/12/25 00:15:53;;;;;;;9.13;6.30;;;;;;;18.04;24.80;97186.56;5095803;28;20165;-75
2021/12/25 00:18:20;;;;;;;8.45;6.47;;;;;;;18.06;24.60;97178.31;5094704;28;20413;-74
2021/12/25 00:20:48;;;;;;;8.48;6.10;;;;;;;18.05;24.57;97174.81;5094100;28;20120;-72
2021/12/25 00:23:14;;;;;;;7.65;5.70;;;;;;;18.04;24.54;97169.69;5095511;28;20565;-76
2021/12/25 00:25:52;;;;;;;8.10;5.20;;;;;;;18.05;24.64;97148.06;5095458;28;20191;-75
2021/12/25 00:36:16;;;;;;;8.18;5.68;;;;;;;18.05;24.47;97131.19;5075244;28;20043;-73
2021/12/25 00:38:42;;;;;;;6.57;5.22;;;;;;;18.01;24.51;97111.31;5095328;28;20031;-76
2021/12/25 00:41:09;;;;;;;7.50;5.13;;;;;;;18.07;24.52;97102.34;5095051;28;20482;-75
2021/12/25 00:43:35;;;;;;;8.65;5.53;;;;;;;18.05;24.22;97094.56;5076667;28;20409;-72
2021/12/25 00:46:00;;;;;;;7.88;5.03;;;;;;;18.04;24.48;97087.56;5094567;28;20036;-70
2021/12/25 00:48:27;;;;;;;10.73;6.10;;;;;;;18.03;24.37;97077.91;5081364;28;20491;-68
2021/12/25 00:50:53;;;;;;;6.93;4.82;;;;;;;18.04;24.63;97073.34;5074476;28;20434;-71
2021/12/25 00:53:18;;;;;;;8.13;5.82;;;;;;;18.04;24.35;97070.69;5094648;28;20056;-70
2021/12/25 00:55:44;;;;;;;7.53;5.18;;;;;;;18.03;24.37;97064.53;5093873;28;20047;-71
2021/12/25 00:58:10;;;;;;;7.07;5.18;;;;;;;18.02;24.47;97062.06;5093508;28;20035;-71
2021/12/25 01:00:35;;;;;;;7.57;5.10;;;;;;;18.01;24.57;97061.25;5094233;28;20509;-71
2021/12/25 01:03:01;;;;;;;7.97;5.82;;;;;;;18.01;24.46;97061.25;5094250;28;20116;-71
2021/12/25 01:05:26;;;;;;;7.45;4.93;;;;;;;17.99;24.63;97053.47;5094434;28;20032;-71
2021/12/25 01:07:52;;;;;;;7.90;5.10;;;;;;;18.05;24.40;97065.13;5093064;28;20047;-73
2021/12/25 01:10:20;;;;;;;6.75;5.20;;;;;;;18.07;24.43;97046.97;5094446;28;20525;-72
2021/12/25 01:15:38;;;;;;;7.03;5.30;;;;;;;18.11;24.56;97031.28;5094093;28;20055;-70
2021/12/25 01:27:27;;;;;;;7.20;4.95;;;;;;;18.14;24.60;96993.34;5094501;28;20042;-69
2021/12/25 01:39:20;;;;;;;6.22;4.60;;;;;;;18.19;24.79;96974.72;5076147;28;20036;-68
2021/12/25 01:50:00;;;;;;;10.15;4.32;;;;;;;18.19;25.06;96961.34;5093622;28;20058;-67
2021/12/25 01:52:29;;;;;;;10.75;4.18;;;;;;;18.19;25.21;96961.34;5092635;28;20060;-68
2021/12/25 01:55:00;;;;;;;5.68;3.78;;;;;;;18.20;25.11;96954.13;5093457;28;20036;-69
2021/12/25 01:57:28;;;;;;;7.63;4.47;;;;;;;18.20;25.39;96946.91;5091554;28;20047;-68
2021/12/25 01:59:55;;;;;;;6.03;4.43;;;;;;;18.20;25.38;96946.91;5091158;28;20135;-70
2021/12/25 02:02:20;;;;;;;6.38;4.60;;;;;;;18.20;25.47;96938.88;5093645;28;20410;-71
2021/12/25 02:04:46;;;;;;;5.97;4.05;;;;;;;18.22;25.42;96931.44;5092863;28;20031;-71
2021/12/25 02:07:12;;;;;;;4.90;3.85;;;;;;;18.25;25.37;96925.63;5085131;28;20059;-70
2021/12/25 02:09:38;;;;;;;4.75;4.07;;;;;;;18.26;25.40;96918.38;5075706;28;20162;-69
2021/12/25 02:12:04;;;;;;;6.63;3.63;;;;;;;18.27;25.36;96917.34;5073801;28;20043;-71
2021/12/25 02:14:30;;;;;;;4.30;3.25;;;;;;;18.28;25.28;96906.41;5088066;28;20032;-70
2021/12/25 02:17:06;;;;;;;5.32;3.85;;;;;;;18.28;25.51;96911.78;5090648;28;20089;-70
2021/12/25 02:19:44;;;;;;;5.15;3.80;;;;;;;18.29;25.53;96907.22;5091086;28;20494;-70
2021/12/25 02:22:11;;;;;;;6.05;3.88;;;;;;;18.28;25.56;96893.03;5075562;28;20047;-69
2021/12/25 02:24:36;;;;;;;5.38;3.50;;;;;;;18.28;25.58;96894.88;5075477;28;20089;-70
2021/12/25 02:27:04;;;;;;;5.70;3.90;;;;;;;18.26;25.61;96868.38;5072877;28;20036;-69
2021/12/25 02:29:30;;;;;;;6.15;4.32;;;;;;;18.28;25.65;96876.97;5069579;28;20114;-70
2021/12/25 02:31:56;;;;;;;7.22;3.88;;;;;;;18.27;25.54;96867.31;5090891;28;20122;-68
2021/12/25 02:34:22;;;;;;;5.03;3.65;;;;;;;18.29;25.58;96854.50;5091053;28;20032;-69
2021/12/25 02:36:48;;;;;;;4.22;3.20;;;;;;;18.30;25.52;96855.31;5086476;28;20457;-70
2021/12/25 02:39:13;;;;;;;4.50;3.90;;;;;;;18.29;25.49;96843.81;5072195;28;20082;-70
2021/12/25 02:41:39;;;;;;;5.30;4.00;;;;;;;18.29;25.67;96843.81;5071758;28;20040;-70
2021/12/25 02:44:05;;;;;;;5.35;3.78;;;;;;;18.27;25.69;96829.84;5073529;28;20024;-70
2021/12/25 02:46:30;;;;;;;4.90;3.65;;;;;;;18.27;25.40;96843.22;5074000;28;20093;-69
2021/12/25 02:48:58;;;;;;;5.35;3.80;;;;;;;18.28;25.63;96828.78;5073483;28;20094;-69
2021/12/25 02:51:24;;;;;;;4.75;3.47;;;;;;;18.27;25.46;96831.69;5072080;28;20446;-70
2021/12/25 02:53:49;;;;;;;5.60;3.95;;;;;;;18.27;25.56;96829.84;5071647;28;20088;-69
2021/12/25 02:56:15;;;;;;;5.50;3.83;;;;;;;18.28;25.63;96830.66;5073725;28;20041;-69
2021/12/25 02:58:40;;;;;;;5.45;3.58;;;;;;;18.28;25.72;96815.41;5090752;28;20565;-70
2021/12/25 03:01:18;;;;;;;5.75;4.15;;;;;;;18.28;25.66;96814.59;5086146;28;20055;-71
2021/12/25 03:03:45;;;;;;;7.22;3.10;;;;;;;18.28;25.87;96811.91;5071822;28;20420;-72
2021/12/25 03:06:12;;;;;;;4.85;3.38;;;;;;;18.27;25.76;96813.78;5071291;28;20047;-69
2021/12/25 03:08:41;;;;;;;5.25;3.63;;;;;;;18.28;25.87;96806.56;5089512;28;20047;-70
2021/12/25 03:11:08;;;;;;;9.13;4.05;;;;;;;18.28;25.94;96815.41;5090417;28;20028;-69
2021/12/25 03:13:43;;;;;;;5.65;3.30;;;;;;;18.28;26.05;96804.72;5090107;28;20391;-70
2021/12/25 03:16:09;;;;;;;5.10;4.57;;;;;;;18.27;25.98;96797.72;5090009;28;20028;-69
2021/12/25 03:18:43;;;;;;;5.85;3.85;;;;;;;18.32;26.12;96801.53;5089483;28;20428;-69
2021/12/25 03:21:09;;;;;;;3.97;3.40;;;;;;;18.29;26.06;96792.13;5090617;28;20032;-69
2021/12/25 03:23:36;;;;;;;5.72;3.40;;;;;;;18.32;25.94;96797.00;5090526;28;20494;-70
2021/12/25 03:26:04;;;;;;;4.15;3.20;;;;;;;18.33;25.93;96795.13;5090246;28;20032;-70
2021/12/25 03:28:32;;;;;;;5.45;3.50;;;;;;;18.32;26.03;96785.47;5090211;28;20032;-70
2021/12/25 03:31:01;;;;;;;5.22;3.25;;;;;;;18.32;26.03;96780.13;5090208;28;20409;-68
2021/12/25 03:33:28;;;;;;;5.35;3.58;;;;;;;18.30;25.85;96775.84;5072842;28;20040;-70
2021/12/25 03:35:53;;;;;;;4.75;3.38;;;;;;;18.32;25.84;96774.75;5071277;28;20024;-71
2021/12/25 03:38:20;;;;;;;4.35;3.28;;;;;;;18.33;25.98;96768.38;5078385;28;20039;-69
2021/12/25 03:40:48;;;;;;;4.13;3.17;;;;;;;18.35;25.98;96766.25;5090539;28;20037;-70
2021/12/25 03:43:14;;;;;;;4.53;3.25;;;;;;;18.36;26.06;96759.84;5090006;28;20059;-69
2021/12/25 03:45:39;;;;;;;5.53;3.33;;;;;;;18.35;25.90;96756.38;5089315;28;20028;-69
2021/12/25 03:48:14;;;;;;;5.03;3.03;;;;;;;18.38;26.16;96755.09;5084532;28;20043;-69
2021/12/25 03:58:54;;;;;;;3.78;2.80;;;;;;;18.39;26.41;96737.97;5090146;28;20047;-73
2021/12/25 04:04:05;;;;;;;4.28;2.90;;;;;;;18.39;26.08;96733.41;5090547;28;20502;-71
2021/12/25 04:06:32;;;;;;;5.38;3.42;;;;;;;18.40;26.02;96732.38;5088238;28;20073;-72
2021/12/25 04:09:00;;;;;;;5.43;3.40;;;;;;;18.42;26.15;96721.44;5075601;28;20059;-69
2021/12/25 04:11:32;;;;;;;4.28;2.78;;;;;;;18.43;26.07;96720.38;5073663;28;20071;-70
2021/12/25 04:13:57;;;;;;;4.40;3.20;;;;;;;18.41;26.08;96707.22;5090351;28;20035;-71
2021/12/25 04:16:23;;;;;;;4.15;2.85;;;;;;;18.42;26.27;96713.41;5089773;28;20392;-71
2021/12/25 04:18:49;;;;;;;4.55;2.85;;;;;;;18.40;26.17;96702.91;5089827;28;20024;-71
2021/12/25 04:21:15;;;;;;;3.78;2.90;;;;;;;18.41;26.22;96693.84;5089347;28;20398;-70
2021/12/25 04:23:43;;;;;;;3.58;2.90;;;;;;;18.42;26.03;96689.31;5089602;28;20032;-70
2021/12/25 04:26:09;;;;;;;5.50;3.10;;;;;;;18.43;26.04;96680.22;5086228;28;20502;-70
2021/12/25 05:01:46;;;;;;;3.70;2.95;;;;;;;18.43;26.25;96664.97;5073937;28;20031;-69
2021/12/25 05:03:57;;;;;;;4.32;2.60;;;;;;;18.48;26.32;96642.03;5093082;28;20436;-70
2021/12/25 05:06:23;;;;;;;3.25;2.40;;;;;;;18.46;26.39;96644.91;5092787;28;20024;-69
2021/12/25 05:08:54;;;;;;;3.30;2.38;;;;;;;18.48;26.84;96640.13;5091993;28;20028;-69
2021/12/25 05:11:20;;;;;;;4.43;2.58;;;;;;;18.50;26.40;96634.56;5074968;28;20035;-68
2021/12/25 05:13:49;;;;;;;4.13;2.72;;;;;;;18.50;26.44;96631.88;5092440;28;20521;-69
2021/12/25 05:16:14;;;;;;;5.60;3.13;;;;;;;18.52;26.44;96629.78;5092222;28;20441;-71
2021/12/25 05:18:40;;;;;;;4.22;3.03;;;;;;;18.52;26.32;96627.91;5075327;28;20032;-69
2021/12/25 05:21:07;;;;;;;3.63;2.45;;;;;;;18.52;26.43;96627.91;5074173;28;20404;-69
2021/12/25 05:23:33;;;;;;;4.70;2.92;;;;;;;18.53;26.43;96629.53;5073612;28;20808;-71
2021/12/25 05:25:58;;;;;;;3.63;3.10;;;;;;;18.54;26.40;96627.63;5075132;28;20069;-70
2021/12/25 05:28:26;;;;;;;4.90;3.13;;;;;;;18.53;26.34;96623.38;5077348;28;20079;-70
2021/12/25 05:30:53;;;;;;;5.60;2.58;;;;;;;18.55;26.33;96615.88;5076534;28;20119;-70
2021/12/25 05:33:20;;;;;;;3.78;2.75;;;;;;;18.56;26.43;96618.31;5073336;28;20047;-69
2021/12/25 05:35:46;;;;;;;4.22;3.17;;;;;;;18.55;26.42;96622.06;5073595;28;20360;-71
2021/12/25 05:38:14;;;;;;;4.22;2.80;;;;;;;18.55;26.38;96619.38;5074634;28;20081;-71
2021/12/25 05:40:42;;;;;;;3.38;2.70;;;;;;;18.56;26.46;96618.31;5088217;28;20538;-71
2021/12/25 05:43:08;;;;;;;4.03;2.90;;;;;;;18.56;26.37;96601.44;5091742;28;20028;-75
2021/12/25 05:45:34;;;;;;;4.35;2.88;;;;;;;18.57;26.62;96605.75;5092417;28;20032;-74
2021/12/25 05:47:59;;;;;;;5.22;2.95;;;;;;;18.55;26.37;96600.63;5083544;28;20032;-74
2021/12/25 05:50:26;;;;;;;3.58;2.70;;;;;;;18.57;26.39;96605.75;5091785;28;20081;-76
2021/12/25 05:52:52;;;;;;;4.50;2.65;;;;;;;18.56;26.45;96590.72;5091239;28;20453;-78
2021/12/25 05:55:17;;;;;;;3.33;2.42;;;;;;;18.58;26.17;96599.31;5091124;28;20024;-75
2021/12/25 05:57:43;;;;;;;3.78;2.92;;;;;;;18.57;26.29;96593.19;5091020;28;20122;-75
2021/12/25 06:00:09;;;;;;;3.47;2.75;;;;;;;18.57;26.47;96587.81;5091381;28;20486;-75
2021/12/25 06:02:36;;;;;;;4.15;2.65;;;;;;;18.57;26.44;96578.97;5077615;28;20490;-74
2021/12/25 06:05:04;;;;;;;3.45;2.50;;;;;;;18.58;26.47;96586.78;5072772;28;20035;-76
2021/12/25 06:07:31;;;;;;;3.60;2.50;;;;;;;18.56;26.50;96567.44;5074105;28;20032;-76
2021/12/25 06:09:57;;;;;;;3.53;2.28;;;;;;;18.58;26.44;96577.91;5078877;28;20047;-74
2021/12/25 06:12:23;;;;;;;4.72;3.00;;;;;;;18.59;26.47;96568.81;5091031;28;20036;-79
2021/12/25 06:14:49;;;;;;;3.95;2.72;;;;;;;18.58;26.55;96565.34;5068106;28;20560;-74
2021/12/25 06:17:17;;;;;;;3.88;2.15;;;;;;;18.60;26.43;96560.53;5072169;28;20028;-78
2021/12/25 06:19:42;;;;;;;3.47;2.40;;;;;;;18.60;26.47;96560.53;5072503;28;20042;-76
2021/12/25 06:22:08;;;;;;;3.83;2.55;;;;;;;18.63;26.61;96553.06;5084601;28;20478;-73
2021/12/25 06:24:33;;;;;;;4.82;2.63;;;;;;;18.61;26.66;96556.00;5091455;28;20020;-74
2021/12/25 06:26:59;;;;;;;4.75;2.60;;;;;;;18.64;26.53;96552.00;5081967;28;20094;-72
2021/12/25 06:29:24;;;;;;;3.05;2.30;;;;;;;18.64;26.60;96555.50;5072260;28;20037;-74
2021/12/25 06:31:50;;;;;;;3.28;2.55;;;;;;;18.64;26.55;96550.16;5072402;28;20040;-76
2021/12/25 06:34:17;;;;;;;2.67;2.10;;;;;;;18.65;26.48;96543.75;5072034;28;20028;-79
2021/12/25 06:36:42;;;;;;;3.25;2.25;;;;;;;18.67;26.57;96546.16;5074286;28;20027;-74
2021/12/25 06:39:13;;;;;;;3.10;2.35;;;;;;;18.68;26.47;96547.78;5091055;28;20156;-78
2021/12/25 06:41:39;;;;;;;;;;;;;;;18.61;26.54;96543.41;5091023;28;20475;-75
2021/12/25 06:44:05;;;;;;;3.70;2.53;;;;;;;18.63;26.52;96553.06;5090820;28;19919;-78
2021/12/25 06:46:31;;;;;;;3.08;2.47;;;;;;;18.67;26.39;96549.66;5089421;28;20111;-72
2021/12/25 06:48:56;;;;;;;4.18;2.65;;;;;;;18.67;26.42;96540.81;5085109;28;20050;-74
2021/12/25 06:51:22;;;;;;;4.40;2.88;;;;;;;18.69;26.51;96534.16;5088457;28;20028;-78
2021/12/25 06:53:47;;;;;;;4.35;2.38;;;;;;;18.70;26.57;96541.13;5072630;28;20531;-75
2021/12/25 06:56:14;;;;;;;3.60;2.55;;;;;;;18.70;26.56;96543.00;5072605;28;20035;-81
2021/12/25 06:58:39;;;;;;;3.45;2.15;;;;;;;18.67;26.45;96524.75;5078349;28;20036;-74
2021/12/25 07:01:05;;;;;;;4.25;2.63;;;;;;;18.72;26.58;96538.22;5073108;28;20046;-71
2021/12/25 07:03:30;;;;;;;3.58;2.40;;;;;;;18.75;26.55;96540.38;5073969;28;20039;-73
2021/12/25 07:05:56;;;;;;;3.10;2.38;;;;;;;18.75;26.52;96530.50;5071290;28;20391;-78
2021/12/25 07:08:21;;;;;;;3.83;2.42;;;;;;;18.77;26.71;96522.19;5072028;28;20020;-77
2021/12/25 07:10:47;;;;;;;4.32;2.92;;;;;;;18.79;26.83;96532.69;5072360;28;20039;-81
2021/12/25 07:13:17;;;;;;;3.40;2.35;;;;;;;18.80;26.70;96521.69;5086685;28;20032;-78
2021/12/25 07:15:43;;;;;;;4.47;2.72;;;;;;;18.80;26.60;96511.00;5091804;28;20027;-76
2021/12/25 07:18:09;;;;;;;3.38;2.40;;;;;;;18.81;26.62;96515.28;5090806;28;20089;-73
2021/12/25 07:20:35;;;;;;;3.00;2.38;;;;;;;18.84;26.69;96511.28;5092341;28;20428;-75
2021/12/25 07:23:00;;;;;;;3.67;2.72;;;;;;;18.85;26.68;96511.06;5091228;28;20097;-75
2021/12/25 07:25:26;;;;;;;4.13;2.85;;;;;;;18.87;26.46;96505.44;5092344;28;20085;-78
2021/12/25 07:27:52;;;;;;;3.50;2.20;;;;;;;18.90;26.62;96513.78;5092038;28;20085;-77
2021/12/25 07:30:18;;;;;;;3.80;2.42;;;;;;;18.90;26.70;96519.16;5092343;28;20032;-77
2021/12/25 07:32:43;;;;;;;3.78;2.63;;;;;;;18.92;26.54;96508.19;5090683;28;20101;-74
2021/12/25 07:35:09;;;;;;;3.88;2.35;;;;;;;18.95;26.58;96515.78;5091052;28;20478;-75
2021/12/25 07:37:35;;;;;;;3.40;2.50;;;;;;;18.97;26.47;96519.00;5052127;28;20426;-77
2021/12/25 07:40:04;;;;;;;3.60;2.33;;;;;;;18.97;26.50;96521.66;5071992;28;20571;-75
2021/12/25 07:42:30;;;;;;;3.65;2.17;;;;;;;18.99;26.48;96511.50;5083031;28;20032;-75
2021/12/25 07:45:03;;;;;;;3.63;2.47;;;;;;;19.00;26.68;96504.31;5092241;28;20436;-73
2021/12/25 07:47:28;;;;;;;3.25;2.42;;;;;;;18.99;26.34;96516.88;5087014;28;20027;-74
2021/12/25 07:49:56;;;;;;;4.63;2.45;;;;;;;19.01;26.49;96511.28;5092074;28;20035;-78
2021/12/25 07:52:22;;;;;;;3.50;2.58;;;;;;;19.01;26.59;96506.72;5091291;28;20040;-71
2021/12/25 07:54:48;;;;;;;6.30;2.63;;;;;;;19.02;26.49;96500.31;5092537;28;20467;-72
2021/12/25 07:57:13;;;;;;;4.95;2.40;;;;;;;19.03;26.58;96495.78;5092139;28;20028;-71
2021/12/25 07:59:39;;;;;;;4.63;2.65;;;;;;;19.06;26.49;96500.59;5092169;28;20032;-73
2021/12/25 08:02:05;;;;;;;4.43;2.90;;;;;;;19.08;26.61;96493.13;5090466;28;20039;-72
2021/12/25 08:04:30;;;;;;;4.18;2.40;;;;;;;19.10;26.93;96508.97;5094206;28;20032;-73
2021/12/25 08:06:56;;;;;;;3.72;3.08;;;;;;;19.11;26.58;96503.34;5077485;28;20512;-74
2021/12/25 08:09:28;;;;;;;3.78;2.55;;;;;;;19.14;26.55;96502.84;5095849;28;20569;-75
2021/12/25 08:11:55;;;;;;;4.15;2.50;;;;;;;19.12;26.70;96485.38;5095464;28;20039;-71
2021/12/25 08:14:23;;;;;;;3.38;2.38;;;;;;;19.15;26.59;96488.41;5095624;28;20040;-72
2021/12/25 08:16:48;;;;;;;3.80;2.42;;;;;;;19.16;26.76;96495.38;5095365;28;20024;-74
2021/12/25 08:19:14;;;;;;;3.53;2.40;;;;;;;19.20;26.56;96493.00;5095760;28;20032;-74
2021/12/25 08:21:39;;;;;;;3.28;2.10;;;;;;;19.20;26.59;96488.44;5095015;28;20027;-73
2021/12/25 08:24:05;;;;;;;2.88;2.25;;;;;;;19.20;26.70;96488.44;5095299;28;20054;-72
2021/12/25 08:26:30;;;;;;;3.72;2.50;;;;;;;19.20;26.67;96485.75;5095111;28;20031;-74
2021/12/25 08:28:56;;;;;;;3.17;2.58;;;;;;;19.23;26.55;96491.69;5095897;28;20038;-75
2021/12/25 08:31:21;;;;;;;3.28;2.08;;;;;;;19.25;26.55;96493.06;5094270;28;20073;-73
2021/12/25 08:33:47;;;;;;;2.42;2.00;;;;;;;19.28;26.63;96491.75;5094822;28;20054;-73
2021/12/25 08:36:12;;;;;;;3.15;2.85;;;;;;;19.32;26.70;96498.22;5093648;28;20028;-73
2021/12/25 08:38:38;;;;;;;3.17;2.22;;;;;;;19.36;26.81;96492.09;5094704;28;20039;-73
2021/12/25 08:41:03;;;;;;;2.97;2.20;;;;;;;19.38;26.74;96497.19;5095410;28;20032;-74
2021/12/25 08:43:34;;;;;;;4.40;2.20;;;;;;;19.40;26.56;96491.59;5095115;28;20089;-72
2021/12/25 08:46:16;;;;;;;3.77;2.03;;;;;;;19.41;26.56;96488.66;5095193;28;20371;-72
2021/12/25 08:48:42;;;;;;;3.40;2.25;;;;;;;19.42;26.76;96490.28;5093909;28;20039;-72
2021/12/25 08:51:07;;;;;;;4.38;2.35;;;;;;;19.43;26.60;96491.09;5094792;28;20035;-73
2021/12/25 08:53:33;;;;;;;3.72;2.20;;;;;;;19.45;26.71;96484.44;5093507;28;20056;-70
2021/12/25 08:55:59;;;;;;;4.03;2.35;;;;;;;19.48;26.70;96494.63;5094621;28;20164;-72
2021/12/25 08:58:27;;;;;;;2.97;2.30;;;;;;;19.51;26.59;96493.31;5095004;28;20035;-72
2021/12/25 09:00:57;;;;;;;4.65;2.60;;;;;;;19.51;26.49;96494.13;5094949;28;20483;-73
2021/12/25 09:03:25;;;;;;;2.93;2.23;;;;;;;19.55;26.63;96494.44;5083371;28;20032;-73
2021/12/25 09:05:56;;;;;;;2.88;2.10;;;;;;;19.56;26.54;96488.00;5093305;28;20024;-73
2021/12/25 09:08:22;;;;;;;4.30;2.57;;;;;;;19.56;26.70;96489.88;5093063;28;20055;-76
2021/12/25 09:10:47;;;;;;;4.28;2.88;;;;;;;19.58;26.45;96490.44;5086940;28;20059;-74
2021/12/25 09:13:13;;;;;;;2.83;2.13;;;;;;;19.60;26.82;96499.84;5092463;28;20066;-74
2021/12/25 09:15:38;;;;;;;4.75;2.45;;;;;;;19.63;26.87;96495.84;5093838;28;20135;-74
2021/12/25 09:18:04;;;;;;;4.53;2.60;;;;;;;19.61;26.82;96485.38;5075849;28;20039;-73
2021/12/25 09:20:30;;;;;;;3.47;2.70;;;;;;;19.62;26.80;96502.28;5058796;28;20032;-73
2021/12/25 09:22:57;;;;;;;4.80;2.38;;;;;;;19.62;26.87;96499.59;5074935;28;20032;-71
2021/12/25 09:25:24;;;;;;;3.63;2.20;;;;;;;19.64;26.86;96497.44;5080525;28;20068;-71
2021/12/25 09:27:50;;;;;;;4.82;2.78;;;;;;;19.66;27.03;96506.06;5089180;28;20482;-68
2021/12/25 09:30:16;;;;;;;3.70;1.98;;;;;;;19.69;27.11;96513.59;5091690;28;20455;-73
2021/12/25 09:32:42;;;;;;;6.82;2.67;;;;;;;19.73;27.11;96517.41;5091533;28;20115;-73
2021/12/25 09:35:09;;;;;;;4.00;2.67;;;;;;;19.75;27.06;96515.28;5092353;28;20111;-74
2021/12/25 09:37:35;;;;;;;2.88;2.35;;;;;;;19.77;27.15;96518.50;5085081;28;20028;-70
2021/12/25 09:40:02;;;;;;;3.80;2.47;;;;;;;19.78;27.02;96525.47;5075781;28;20056;-75
2021/12/25 09:42:27;;;;;;;4.25;2.30;;;;;;;19.80;27.13;96527.91;5074413;28;20032;-72
2021/12/25 09:44:53;;;;;;;6.30;2.15;;;;;;;19.80;27.05;96533.28;5073367;28;20580;-74
2021/12/25 09:47:19;;;;;;;3.35;2.10;;;;;;;19.82;27.13;96533.84;5077807;28;20032;-70
2021/12/25 09:49:45;;;;;;;3.85;2.55;;;;;;;19.81;27.27;96541.06;5089988;28;20039;-74
2021/12/25 09:52:10;;;;;;;5.85;2.75;;;;;;;19.83;27.37;96540.84;5091359;28;20051;-71
2021/12/25 09:54:36;;;;;;;6.22;2.10;;;;;;;19.81;27.53;96549.13;5091499;28;20031;-72
2021/12/25 09:57:02;;;;;;;4.70;2.88;;;;;;;19.78;27.41;96541.56;5091512;28;20035;-70
2021/12/25 09:59:27;;;;;;;6.30;2.55;;;;;;;19.78;27.60;96546.94;5092099;28;20062;-73
2021/12/25 10:01:56;;;;;;;4.50;2.47;;;;;;;19.79;27.67;96559.28;5089021;28;20667;-76
2021/12/25 10:04:40;;;;;;;3.80;2.80;;;;;;;19.79;27.71;96561.97;5086777;28;20137;-72
2021/12/25 10:07:31;;;;;;;6.80;3.53;;;;;;;19.76;27.45;96559.00;5083633;28;20354;-74
2021/12/25 10:10:02;;;;;;;8.05;4.43;;;;;;;19.72;27.28;96560.56;5086309;28;20040;-72
2021/12/25 10:12:40;;;;;;;7.20;4.72;;;;;;;19.67;26.98;96554.09;5090547;28;20039;-74
2021/12/25 10:15:08;;;;;;;6.10;4.03;;;;;;;19.65;27.06;96568.81;5073733;28;20035;-74
2021/12/25 10:17:41;;;;;;;9.07;4.55;;;;;;;19.64;26.92;96572.53;5091221;28;20039;-70
2021/12/25 10:20:33;;;;;;;7.90;4.50;;;;;;;19.61;26.69;96581.91;5076633;28;20058;-73
2021/12/25 10:23:12;;;;;;;5.63;3.97;;;;;;;19.59;26.76;96585.91;5083747;28;20044;-70
2021/12/25 10:25:51;;;;;;;6.05;3.80;;;;;;;19.58;26.61;96592.34;5090971;28;20024;-72
2021/12/25 10:28:23;;;;;;;8.25;3.95;;;;;;;19.59;26.74;96602.81;5091220;28;20028;-76
2021/12/25 10:31:04;;;;;;;7.18;3.92;;;;;;;19.58;26.60;96603.88;5091411;28;20024;-75
2021/12/25 10:33:33;;;;;;;5.95;4.07;;;;;;;19.59;26.81;96607.38;5092865;28;20039;-72
2021/12/25 10:36:03;;;;;;;5.38;4.22;;;;;;;19.59;26.80;96616.22;5090057;28;20388;-79
2021/12/25 10:38:29;;;;;;;7.20;4.60;;;;;;;19.58;26.80;96608.44;5074823;28;20039;-75
2021/12/25 10:41:17;;;;;;;7.30;4.22;;;;;;;19.56;26.52;96621.28;5091143;28;20040;-76
2021/12/25 10:43:43;;;;;;;5.70;3.78;;;;;;;19.56;26.64;96610.56;5086548;28;20043;-72
2021/12/25 10:46:10;;;;;;;6.93;3.97;;;;;;;19.65;26.54;96617.09;5089826;28;20160;-71
2021/12/25 10:48:35;;;;;;;5.88;3.83;;;;;;;19.72;26.33;96633.81;5072590;28;20036;-76
2021/12/25 10:51:02;;;;;;;7.45;3.80;;;;;;;19.77;26.36;96631.19;5071305;28;20496;-72
2021/12/25 10:53:40;;;;;;;7.03;3.95;;;;;;;19.81;26.18;96631.50;5052999;28;20052;-71
2021/12/25 10:56:16;;;;;;;5.15;3.45;;;;;;;19.79;26.28;96650.50;5079301;28;20082;-73
2021/12/25 10:58:43;;;;;;;5.57;3.53;;;;;;;19.75;26.08;96649.41;5085850;28;20110;-76
2021/12/25 11:01:11;;;;;;;5.85;3.47;;;;;;;19.73;26.19;96648.00;5089401;28;20077;-74
2021/12/25 11:03:39;;;;;;;5.18;3.88;;;;;;;19.72;26.23;96665.16;5072737;28;20032;-76
2021/12/25 11:06:06;;;;;;;5.68;3.65;;;;;;;19.72;26.31;96654.44;5071654;28;20056;-75
2021/12/25 11:08:33;;;;;;;5.40;3.47;;;;;;;19.72;26.06;96659.81;5072846;28;20037;-71
2021/12/25 11:11:03;;;;;;;4.53;3.33;;;;;;;19.71;26.21;96659.00;5071870;28;20111;-74
2021/12/25 11:13:35;;;;;;;5.72;3.45;;;;;;;19.72;26.21;96660.63;5084769;28;20462;-74
2021/12/25 11:16:06;;;;;;;;;;;;;;;19.63;26.15;96672.88;5086712;28;20445;-76
2021/12/25 11:19:05;;;;;;;10.18;4.13;;;;;;;19.60;26.22;96679.53;5090187;28;19916;-71
2021/12/25 11:21:59;;;;;;;14.88;3.58;;;;;;;19.61;26.36;96693.75;5086208;28;20395;-75
2021/12/25 11:24:24;;;;;;;4.60;3.13;;;;;;;19.63;26.33;96695.13;5073833;28;20041;-73
2021/12/25 11:26:53;;;;;;;6.43;3.38;;;;;;;19.67;26.41;96704.31;5091731;28;20039;-73
2021/12/25 11:29:22;;;;;;;5.30;3.45;;;;;;;19.69;26.15;96712.09;5090191;28;20433;-73
2021/12/25 11:31:49;;;;;;;6.15;3.53;;;;;;;19.72;26.23;96702.72;5091629;28;20398;-73
2021/12/25 11:34:16;;;;;;;7.63;2.95;;;;;;;19.74;26.45;96725.56;5092159;28;20062;-77
2021/12/25 11:36:47;;;;;;;5.00;3.17;;;;;;;19.75;26.45;96713.78;5092719;28;20031;-73
2021/12/25 11:39:15;;;;;;;4.40;2.75;;;;;;;19.74;26.42;96719.38;5094112;28;20116;-69
2021/12/25 11:41:42;;;;;;;4.18;3.13;;;;;;;19.75;26.24;96732.56;5095115;28;20031;-74
2021/12/25 11:44:29;;;;;;;6.88;3.22;;;;;;;19.74;26.36;96730.94;5096236;28;20024;-73
2021/12/25 11:46:55;;;;;;;7.22;2.90;;;;;;;19.75;26.48;96740.63;5094995;28;20401;-73
2021/12/25 11:49:20;;;;;;;8.77;3.58;;;;;;;19.75;26.63;96743.28;5085354;28;20032;-71
2021/12/25 11:51:46;;;;;;;8.20;3.17;;;;;;;19.75;26.42;96751.34;5095257;28;20046;-73
2021/12/25 11:59:47;;;;;;;8.38;3.10;;;;;;;19.69;26.61;96775.66;5092231;28;20170;-72
2021/12/25 12:02:39;;;;;;;4.82;2.78;;;;;;;19.63;26.54;96778.28;5095567;28;20040;-76
2021/12/25 12:05:36;;;;;;;8.90;3.35;;;;;;;19.61;26.83;96783.06;5076882;28;20066;-70
2021/12/25 12:08:11;;;;;;;3.92;2.47;;;;;;;19.57;26.71;96783.81;5062977;28;20094;-73
2021/12/25 12:10:46;;;;;;;6.35;2.70;;;;;;;19.60;27.14;96784.13;5083314;28;20067;-75
2021/12/25 12:13:16;;;;;;;4.10;2.47;;;;;;;19.61;27.06;96796.47;5076569;28;20044;-75
2021/12/25 12:15:50;;;;;;;5.00;2.80;;;;;;;19.59;27.54;96797.78;5095625;28;20490;-70
2021/12/25 12:18:28;;;;;;;5.05;2.30;;;;;;;19.58;27.90;96821.09;5095181;28;20106;-73
2021/12/25 12:20:59;;;;;;;8.90;2.75;;;;;;;19.57;27.88;96821.38;5094994;28;20453;-73
2021/12/25 12:26:45;;;;;;;4.75;2.13;;;;;;;19.48;28.41;96832.50;5063329;28;19920;-72
2021/12/25 12:29:39;;;;;;;9.55;2.53;;;;;;;19.50;28.65;96848.34;5095339;28;20402;-68
2021/12/25 12:32:06;;;;;;;8.45;2.60;;;;;;;19.51;28.62;96847.28;5095570;28;20128;-68
2021/12/25 12:34:32;;;;;;;4.70;2.20;;;;;;;19.51;28.88;96848.09;5094804;28;20040;-69
2021/12/25 12:37:33;;;;;;;5.80;2.17;;;;;;;19.54;29.08;96845.97;5089258;28;20035;-69
2021/12/25 12:40:04;;;;;;;5.38;2.22;;;;;;;19.51;28.89;96847.28;5076396;28;20160;-74
2021/12/25 12:42:59;;;;;;;6.85;1.73;;;;;;;19.50;29.06;96862.56;5092073;28;20094;-69
2021/12/25 12:45:52;;;;;;;2.55;1.58;;;;;;;19.49;28.93;96863.63;5079801;28;20048;-69
2021/12/25 12:48:22;;;;;;;4.60;2.22;;;;;;;19.48;28.83;96879.97;5086468;28;20032;-67
2021/12/25 12:50:51;;;;;;;3.40;1.77;;;;;;;19.47;28.83;96878.31;5091827;28;20371;-66
2021/12/25 12:53:19;;;;;;;5.25;1.60;;;;;;;19.49;28.81;96882.38;5094751;28;20063;-66
2021/12/25 12:55:47;;;;;;;2.47;1.70;;;;;;;19.48;28.59;96894.16;5094689;28;20043;-66
2021/12/25 12:58:15;;;;;;;5.03;2.75;;;;;;;19.38;27.76;96907.41;5094439;28;20573;-67
2021/12/25 13:00:47;;;;;;;6.90;1.85;;;;;;;18.73;27.71;96907.56;5077756;28;20036;-67
2021/12/25 13:03:14;;;;;;;3.58;1.90;;;;;;;18.10;28.43;96917.25;5090989;28;20485;-69
2021/12/25 13:05:43;;;;;;;5.78;1.85;;;;;;;17.75;28.39;96926.03;5094620;28;20035;-69
2021/12/25 13:08:18;;;;;;;3.45;1.73;;;;;;;17.34;28.44;96940.06;5087945;28;20070;-64
2021/12/25 13:13:15;;;;;;;2.67;1.30;;;;;;;17.06;29.22;96946.81;5078005;28;20127;-66